Time;durP1;ratioP1;P1;durP2;ratioP2;P2;SDS_P1;SDS_P2;PMS_P1;PMS_P2;Temp;Humidity;BMP_temperature;BMP_pressure;BME280_temperature;BME280_humidity;BME280_pressure;Samples;Min_cycle;Max_cycle;Signal;HPM_P1;HPM_P2
2024/01/20 00:00:18;;;;;;;0.20;0.20;;;0.40;99.90;;;;;;5082440;28;20068;-75
2024/01/20 00:02:45;;;;;;;0.17;0.17;;;0.40;99.90;;;;;;5054541;28;20532;-75
2024/01/20 00:05:12;;;;;;;0.20;0.20;;;0.50;99.90;;;;;;5087271;28;20789;-76
2024/01/20 00:07:40;;;;;;;0.17;0.17;;;0.50;99.90;;;;;;5068031;28;20045;-76
2024/01/20 00:10:10;;;;;;;0.30;0.30;;;0.50;99.90;;;;;;5060601;28;20048;-76
2024/01/20 00:12:42;;;;;;;0.20;0.20;;;0.60;99.90;;;;;;5048708;28;20048;-76
2024/01/20 00:15:09;;;;;;;0.20;0.20;;;0.70;99.90;;;;;;5066354;28;20044;-76
2024/01/20 00:17:38;;;;;;;0.10;0.10;;;0.70;99.90;;;;;;5087434;28;20098;-76
2024/01/20 00:20:07;;;;;;;0.20;0.20;;;0.70;99.90;;;;;;5087788;28;20194;-77
2024/01/20 00:22:35;;;;;;;0.20;0.20;;;0.60;99.90;;;;;;5096421;28;20505;-76
2024/01/20 00:25:02;;;;;;;0.20;0.20;;;0.60;99.90;;;;;;5079919;28;20044;-76
2024/01/20 00:27:30;;;;;;;0.20;0.20;;;0.50;99.90;;;;;;5088826;28;20116;-76
2024/01/20 00:29:58;;;;;;;0.20;0.20;;;0.50;99.90;;;;;;5106923;28;20055;-76
2024/01/20 00:32:26;;;;;;;0.20;0.20;;;0.50;99.90;;;;;;5081744;28;20099;-76
2024/01/20 00:34:54;;;;;;;0.20;0.20;;;0.50;99.90;;;;;;5074953;28;20079;-76
2024/01/20 00:37:26;;;;;;;0.22;0.22;;;0.50;99.90;;;;;;5073230;28;20056;-76
2024/01/20 00:39:53;;;;;;;0.20;0.20;;;0.50;99.90;;;;;;5082739;28;20053;-76
2024/01/20 00:42:20;;;;;;;0.20;0.20;;;0.50;99.90;;;;;;5082588;28;25196;-77
2024/01/20 00:44:47;;;;;;;0.30;0.30;;;0.50;99.90;;;;;;5079172;28;20037;-76
2024/01/20 00:47:14;;;;;;;0.20;0.20;;;0.60;99.90;;;;;;5085632;28;20048;-76
2024/01/20 00:49:42;;;;;;;0.20;0.20;;;0.60;99.90;;;;;;5083284;28;20045;-76
2024/01/20 00:52:09;;;;;;;0.20;0.20;;;0.70;99.90;;;;;;5050379;28;20129;-77
2024/01/20 00:54:36;;;;;;;0.17;0.17;;;0.70;99.90;;;;;;5061923;28;20048;-77
2024/01/20 00:57:04;;;;;;;0.20;0.20;;;0.80;99.90;;;;;;5085975;28;20111;-77
2024/01/20 00:59:31;;;;;;;0.20;0.20;;;0.70;99.90;;;;;;5067980;28;20055;-76
2024/01/20 01:01:58;;;;;;;0.20;0.20;;;0.70;99.90;;;;;;5080075;28;20048;-77
2024/01/20 01:04:26;;;;;;;0.20;0.20;;;0.60;99.90;;;;;;5069309;28;20135;-77
2024/01/20 01:06:53;;;;;;;0.20;0.20;;;0.60;99.90;;;;;;5085291;28;20053;-77
2024/01/20 01:09:20;;;;;;;0.20;0.20;;;0.50;99.90;;;;;;5078002;28;20044;-76
2024/01/20 01:11:47;;;;;;;0.20;0.20;;;0.50;99.90;;;;;;5070262;28;20055;-78
2024/01/20 01:14:14;;;;;;;0.20;0.20;;;0.50;99.90;;;;;;5069495;28;20041;-78
2024/01/20 01:16:42;;;;;;;0.20;0.20;;;0.50;99.90;;;;;;5050775;28;20068;-78
2024/01/20 01:19:09;;;;;;;0.20;0.20;;;0.50;99.90;;;;;;5085416;28;20048;-77
2024/01/20 01:21:36;;;;;;;0.20;0.20;;;0.50;99.90;;;;;;5086904;28;20095;-78
2024/01/20 01:24:05;;;;;;;0.10;0.10;;;0.50;99.90;;;;;;5086720;28;21048;-78
2024/01/20 01:26:32;;;;;;;0.20;0.20;;;0.50;99.90;;;;;;5089320;28;20037;-78
2024/01/20 01:29:00;;;;;;;0.17;0.17;;;0.50;99.90;;;;;;5090476;28;20433;-78
2024/01/20 01:31:27;;;;;;;0.20;0.20;;;0.50;99.90;;;;;;5088035;28;20044;-76
2024/01/20 01:33:54;;;;;;;0.20;0.20;;;0.60;99.90;;;;;;5090260;28;20135;-76
2024/01/20 01:36:22;;;;;;;0.10;0.10;;;0.70;99.90;;;;;;5089627;28;20053;-75
2024/01/20 01:38:49;;;;;;;0.10;0.10;;;0.70;99.90;;;;;;5089099;28;20053;-76
2024/01/20 01:41:16;;;;;;;0.10;0.10;;;0.60;99.90;;;;;;5086691;28;20111;-75
2024/01/20 01:43:43;;;;;;;0.10;0.10;;;0.60;99.90;;;;;;5043884;28;20056;-76
2024/01/20 01:46:11;;;;;;;0.20;0.20;;;0.60;99.90;;;;;;5078864;28;20576;-76
2024/01/20 01:48:38;;;;;;;0.20;0.20;;;0.60;99.90;;;;;;5059559;28;20064;-76
2024/01/20 01:51:05;;;;;;;0.20;0.20;;;0.50;99.90;;;;;;5084826;28;20348;-76
2024/01/20 01:53:33;;;;;;;0.20;0.20;;;0.50;99.90;;;;;;5056359;28;20049;-76
2024/01/20 01:56:01;;;;;;;0.20;0.20;;;0.50;99.90;;;;;;5080983;28;20844;-76
2024/01/20 01:58:29;;;;;;;0.13;0.13;;;0.50;99.90;;;;;;5054114;28;20056;-77
2024/01/20 02:00:56;;;;;;;0.20;0.20;;;0.50;99.90;;;;;;5064202;28;20049;-77
2024/01/20 02:03:23;;;;;;;0.10;0.10;;;0.50;99.90;;;;;;5066382;28;20044;-77
2024/01/20 02:05:51;;;;;;;0.20;0.20;;;0.40;99.90;;;;;;5064555;28;20057;-76
2024/01/20 02:08:20;;;;;;;0.10;0.10;;;0.40;99.90;;;;;;5090135;28;20105;-76
2024/01/20 02:10:48;;;;;;;0.20;0.20;;;0.40;99.90;;;;;;5088608;28;20045;-76
2024/01/20 02:13:15;;;;;;;0.20;0.20;;;0.30;99.90;;;;;;5054593;28;20053;-77
2024/01/20 02:15:43;;;;;;;0.30;0.30;;;0.30;99.90;;;;;;5057384;28;20049;-77
2024/01/20 02:18:10;;;;;;;0.20;0.20;;;0.30;99.90;;;;;;5082414;28;20055;-77
2024/01/20 02:20:37;;;;;;;0.20;0.20;;;0.30;99.90;;;;;;5066169;28;20130;-75
2024/01/20 02:23:05;;;;;;;0.20;0.20;;;0.30;99.90;;;;;;5072641;28;20060;-76
2024/01/20 02:25:32;;;;;;;0.22;0.22;;;0.30;99.90;;;;;;5086401;28;20051;-76
2024/01/20 02:27:59;;;;;;;0.20;0.20;;;0.30;99.90;;;;;;5053933;28;20115;-75
2024/01/20 02:30:26;;;;;;;0.10;0.10;;;0.30;99.90;;;;;;5076935;28;20065;-76
2024/01/20 02:32:53;;;;;;;0.10;0.10;;;0.40;99.90;;;;;;5053893;28;20127;-75
2024/01/20 02:35:21;;;;;;;0.20;0.20;;;0.40;99.90;;;;;;5071937;28;20716;-75
2024/01/20 02:37:48;;;;;;;0.20;0.20;;;0.40;99.90;;;;;;5088414;28;20042;-75
2024/01/20 02:40:16;;;;;;;0.10;0.10;;;0.40;99.90;;;;;;5088897;28;20040;-76
2024/01/20 02:42:43;;;;;;;0.20;0.20;;;0.40;99.90;;;;;;5080279;28;21025;-76
2024/01/20 02:45:11;;;;;;;0.10;0.10;;;0.40;99.90;;;;;;5070028;28;20060;-76
2024/01/20 02:47:38;;;;;;;0.20;0.20;;;0.40;99.90;;;;;;5086421;28;20036;-75
2024/01/20 02:50:06;;;;;;;0.20;0.20;;;0.40;99.90;;;;;;5059881;28;20053;-76
2024/01/20 02:52:33;;;;;;;0.20;0.20;;;0.30;99.90;;;;;;5047982;28;20056;-75
2024/01/20 02:55:02;;;;;;;0.20;0.20;;;0.30;99.90;;;;;;5069108;28;20040;-76
2024/01/20 02:57:30;;;;;;;0.28;0.28;;;0.30;99.90;;;;;;5084852;28;22080;-76
2024/01/20 02:59:57;;;;;;;0.20;0.20;;;0.30;99.90;;;;;;5086198;28;20068;-76
2024/01/20 03:02:25;;;;;;;0.20;0.20;;;0.20;99.90;;;;;;5069668;28;20067;-77
2024/01/20 03:04:52;;;;;;;0.20;0.20;;;0.10;99.90;;;;;;5101597;28;20094;-77
2024/01/20 03:07:20;;;;;;;0.20;0.20;;;0.10;99.90;;;;;;5079103;28;20044;-76
2024/01/20 03:09:47;;;;;;;0.20;0.20;;;0.00;99.90;;;;;;5082600;28;20055;-77
2024/01/20 03:12:15;;;;;;;0.20;0.20;;;0.10;99.90;;;;;;5070161;28;20041;-77
2024/01/20 03:14:42;;;;;;;0.17;0.17;;;0.00;99.90;;;;;;5063869;28;20049;-76
2024/01/20 03:17:09;;;;;;;0.10;0.10;;;0.00;99.90;;;;;;5058923;28;20050;-76
2024/01/20 03:19:37;;;;;;;0.20;0.20;;;0.00;99.90;;;;;;5067886;28;20044;-77
2024/01/20 03:22:04;;;;;;;0.30;0.30;;;0.00;99.90;;;;;;5082893;28;20056;-76
2024/01/20 03:24:32;;;;;;;0.20;0.20;;;0.00;99.90;;;;;;5085027;28;20052;-77
2024/01/20 03:26:59;;;;;;;0.20;0.20;;;-0.10;99.90;;;;;;5054622;28;30949;-75
2024/01/20 03:29:26;;;;;;;0.20;0.20;;;-0.10;99.90;;;;;;5057883;28;20649;-75
2024/01/20 03:31:53;;;;;;;0.20;0.20;;;-0.10;99.90;;;;;;5070138;28;20052;-75
2024/01/20 03:34:21;;;;;;;0.20;0.20;;;-0.20;99.90;;;;;;5069093;28;20045;-75
2024/01/20 03:36:50;;;;;;;0.22;0.22;;;-0.20;99.90;;;;;;5076037;28;20111;-75
2024/01/20 03:39:17;;;;;;;0.20;0.20;;;-0.20;99.90;;;;;;5056853;28;20048;-75
2024/01/20 03:41:44;;;;;;;0.20;0.20;;;-0.30;99.90;;;;;;5074111;28;20049;-75
2024/01/20 03:44:11;;;;;;;0.20;0.20;;;-0.20;99.90;;;;;;5085527;28;20044;-75
2024/01/20 03:46:39;;;;;;;0.20;0.20;;;-0.30;99.90;;;;;;5083817;28;20041;-75
2024/01/20 03:49:06;;;;;;;0.20;0.20;;;-0.30;99.90;;;;;;5085289;28;20516;-75
2024/01/20 03:51:33;;;;;;;0.20;0.20;;;-0.30;99.90;;;;;;5073431;28;20045;-75
2024/01/20 03:54:02;;;;;;;0.20;0.20;;;-0.30;99.90;;;;;;5070901;28;20044;-76
2024/01/20 03:56:30;;;;;;;0.10;0.10;;;-0.30;99.90;;;;;;5070806;28;20578;-75
2024/01/20 03:58:58;;;;;;;0.20;0.20;;;-0.30;99.90;;;;;;5063255;28;20071;-76
2024/01/20 04:01:26;;;;;;;0.20;0.20;;;-0.30;99.90;;;;;;5082459;28;20501;-76
2024/01/20 04:03:53;;;;;;;0.10;0.10;;;-0.30;99.90;;;;;;5070965;28;20045;-75
2024/01/20 04:06:20;;;;;;;0.20;0.20;;;-0.30;99.90;;;;;;5079403;28;20713;-75
2024/01/20 04:08:47;;;;;;;0.20;0.20;;;-0.30;99.90;;;;;;5043969;28;20052;-75
2024/01/20 04:11:15;;;;;;;0.20;0.20;;;-0.40;99.90;;;;;;5086367;28;20590;-75
2024/01/20 04:13:42;;;;;;;0.20;0.20;;;-0.40;99.90;;;;;;5098161;28;20041;-75
2024/01/20 04:16:09;;;;;;;0.15;0.15;;;-0.30;99.90;;;;;;5080707;28;20041;-75
2024/01/20 04:18:36;;;;;;;0.10;0.10;;;-0.30;99.90;;;;;;5066843;28;20045;-77
2024/01/20 04:21:04;;;;;;;0.20;0.20;;;-0.20;99.90;;;;;;5091141;28;20055;-77
2024/01/20 04:23:31;;;;;;;0.20;0.20;;;-0.20;99.90;;;;;;5073756;28;20041;-77
2024/01/20 04:25:58;;;;;;;0.22;0.22;;;-0.30;99.90;;;;;;5059784;28;20053;-77
2024/01/20 04:28:25;;;;;;;0.20;0.20;;;-0.30;99.90;;;;;;5067385;28;20053;-77
2024/01/20 04:30:53;;;;;;;0.10;0.10;;;-0.30;99.90;;;;;;5054330;28;20037;-77
2024/01/20 04:33:20;;;;;;;0.20;0.20;;;-0.40;99.90;;;;;;5085612;28;20055;-77
2024/01/20 04:35:47;;;;;;;0.25;0.25;;;-0.40;99.90;;;;;;5087124;28;20271;-77
2024/01/20 04:38:14;;;;;;;0.20;0.20;;;-0.40;99.90;;;;;;5085381;28;20052;-77
2024/01/20 04:40:41;;;;;;;0.20;0.20;;;-0.40;99.90;;;;;;5064791;28;20048;-77
2024/01/20 04:43:09;;;;;;;0.20;0.20;;;-0.40;99.90;;;;;;5091427;28;20036;-77
2024/01/20 04:45:36;;;;;;;0.20;0.20;;;-0.40;99.90;;;;;;5076515;28;20052;-77
2024/01/20 04:48:04;;;;;;;0.20;0.20;;;-0.40;99.90;;;;;;5085462;28;20045;-77
2024/01/20 04:50:33;;;;;;;0.20;0.20;;;-0.40;99.90;;;;;;5105581;28;20045;-77
2024/01/20 04:53:00;;;;;;;0.22;0.22;;;-0.40;99.90;;;;;;5070522;28;20041;-77
2024/01/20 04:55:27;;;;;;;0.20;0.20;;;-0.50;99.90;;;;;;5077847;28;20874;-77
2024/01/20 04:57:54;;;;;;;0.10;0.10;;;-0.50;99.90;;;;;;5089418;28;20052;-77
2024/01/20 05:00:21;;;;;;;0.10;0.10;;;-0.40;99.90;;;;;;5092231;28;20064;-77
2024/01/20 05:02:48;;;;;;;0.20;0.20;;;-0.40;99.90;;;;;;5087313;28;20049;-77
2024/01/20 05:05:15;;;;;;;0.10;0.10;;;-0.50;99.90;;;;;;5058191;28;20045;-77
2024/01/20 05:07:43;;;;;;;0.20;0.20;;;-0.50;99.90;;;;;;5065467;28;20431;-77
2024/01/20 05:10:10;;;;;;;0.20;0.20;;;-0.50;99.90;;;;;;5073854;28;20539;-77
2024/01/20 05:12:37;;;;;;;0.10;0.10;;;-0.50;99.90;;;;;;5054641;28;20087;-77
2024/01/20 05:15:10;;;;;;;0.22;0.22;;;-0.50;99.90;;;;;;5057754;28;20530;-77
2024/01/20 05:17:38;;;;;;;0.10;0.10;;;-0.50;99.90;;;;;;5072047;28;20131;-77
2024/01/20 05:20:06;;;;;;;0.17;0.17;;;-0.60;99.90;;;;;;5073869;28;20539;-77
2024/01/20 05:22:33;;;;;;;0.10;0.10;;;-0.60;99.90;;;;;;5081086;28;20049;-76
2024/01/20 05:25:03;;;;;;;0.20;0.20;;;-0.60;99.90;;;;;;5076623;28;27334;-77
2024/01/20 05:27:30;;;;;;;0.20;0.20;;;-0.60;99.90;;;;;;5073077;28;20104;-76
2024/01/20 05:29:58;;;;;;;0.20;0.20;;;-0.60;99.90;;;;;;5083109;28;20170;-76
2024/01/20 05:32:26;;;;;;;0.10;0.10;;;-0.70;99.90;;;;;;5060885;28;20055;-76
2024/01/20 05:34:53;;;;;;;0.20;0.20;;;-0.70;99.90;;;;;;5085394;28;20051;-76
2024/01/20 05:37:20;;;;;;;0.20;0.20;;;-0.70;99.90;;;;;;5073248;28;20052;-75
2024/01/20 05:39:47;;;;;;;0.20;0.20;;;-0.80;99.90;;;;;;5080159;28;20541;-75
2024/01/20 05:42:15;;;;;;;0.20;0.20;;;-0.80;99.90;;;;;;5082281;28;20052;-76
2024/01/20 05:44:42;;;;;;;0.20;0.20;;;-0.90;99.90;;;;;;5068051;28;20082;-75
2024/01/20 05:47:09;;;;;;;0.10;0.10;;;-0.90;99.90;;;;;;5071959;28;20140;-75
2024/01/20 05:49:36;;;;;;;0.10;0.10;;;-0.90;99.90;;;;;;5086559;28;24026;-76
2024/01/20 05:52:04;;;;;;;0.25;0.25;;;-0.90;99.90;;;;;;5087532;28;20059;-75
2024/01/20 05:54:31;;;;;;;0.20;0.20;;;-1.00;99.90;;;;;;5070877;28;20079;-75
2024/01/20 05:56:58;;;;;;;0.20;0.20;;;-1.00;99.90;;;;;;5070928;28;20056;-76
2024/01/20 05:59:25;;;;;;;0.20;0.20;;;-1.10;99.90;;;;;;5071072;28;20064;-76
2024/01/20 06:01:53;;;;;;;0.20;0.20;;;-1.00;99.90;;;;;;5082904;28;20057;-75
2024/01/20 06:04:20;;;;;;;0.20;0.20;;;-1.00;99.90;;;;;;5068725;28;20048;-75
2024/01/20 06:06:48;;;;;;;0.10;0.10;;;-1.10;99.90;;;;;;5074552;28;20091;-75
2024/01/20 06:09:16;;;;;;;0.20;0.20;;;-1.10;99.90;;;;;;5077849;28;20045;-75
2024/01/20 06:11:43;;;;;;;0.20;0.20;;;-1.10;99.90;;;;;;5083170;28;20058;-75
2024/01/20 06:14:10;;;;;;;0.10;0.10;;;-1.10;99.90;;;;;;5052843;28;20507;-75
2024/01/20 06:16:41;;;;;;;0.20;0.20;;;-1.10;99.90;;;;;;5059640;28;20083;-75
2024/01/20 06:19:08;;;;;;;0.20;0.20;;;-1.10;99.90;;;;;;5084869;28;20059;-75
2024/01/20 06:21:36;;;;;;;0.20;0.20;;;-1.10;99.90;;;;;;5087861;28;20518;-75
2024/01/20 06:24:03;;;;;;;0.20;0.20;;;-1.10;99.90;;;;;;5070901;28;20095;-75
2024/01/20 06:26:31;;;;;;;0.20;0.20;;;-1.00;99.90;;;;;;5069757;28;20083;-75
2024/01/20 06:28:58;;;;;;;0.20;0.20;;;-1.00;99.90;;;;;;5087015;28;20043;-74
2024/01/20 06:31:28;;;;;;;0.20;0.20;;;-1.00;99.90;;;;;;5085833;28;20055;-74
2024/01/20 06:33:55;;;;;;;0.20;0.20;;;-1.00;99.90;;;;;;5087960;28;20565;-74
2024/01/20 06:36:25;;;;;;;0.20;0.20;;;-1.00;99.90;;;;;;5088055;28;20131;-74
2024/01/20 06:38:52;;;;;;;0.20;0.20;;;-1.10;99.90;;;;;;5070674;28;20076;-74
2024/01/20 06:41:20;;;;;;;0.17;0.17;;;-1.10;99.90;;;;;;5089221;28;22672;-77
2024/01/20 06:43:48;;;;;;;0.10;0.10;;;-1.10;99.90;;;;;;5095279;28;20493;-77
2024/01/20 06:46:15;;;;;;;0.20;0.20;;;-1.10;99.90;;;;;;5075679;28;20525;-77
2024/01/20 06:48:42;;;;;;;0.25;0.25;;;-1.00;99.90;;;;;;5074922;28;20519;-76
2024/01/20 06:51:14;;;;;;;0.20;0.20;;;-1.00;99.90;;;;;;5094813;28;21015;-76
2024/01/20 06:53:43;;;;;;;0.20;0.20;;;-1.10;99.90;;;;;;5096617;28;20393;-76
2024/01/20 06:56:10;;;;;;;0.10;0.10;;;-1.10;99.90;;;;;;5075758;28;20056;-77
2024/01/20 06:58:37;;;;;;;0.10;0.10;;;-1.10;99.90;;;;;;5101867;28;20103;-77
2024/01/20 07:01:04;;;;;;;0.10;0.10;;;-1.10;99.90;;;;;;5079131;28;20362;-77
2024/01/20 07:03:31;;;;;;;0.17;0.17;;;-1.10;99.90;;;;;;5076780;28;20580;-76
2024/01/20 07:06:00;;;;;;;0.20;0.20;;;-1.10;99.90;;;;;;5067725;28;20449;-76
2024/01/20 07:08:27;;;;;;;0.20;0.20;;;-1.00;99.90;;;;;;5089678;28;20048;-76
2024/01/20 07:10:54;;;;;;;0.20;0.20;;;-1.00;99.90;;;;;;5057972;28;20040;-76
2024/01/20 07:13:21;;;;;;;0.20;0.20;;;-0.90;99.90;;;;;;5065209;28;20423;-76
2024/01/20 07:15:48;;;;;;;0.20;0.20;;;-0.90;99.90;;;;;;5085521;28;20048;-76
2024/01/20 07:18:15;;;;;;;0.30;0.30;;;-0.80;99.90;;;;;;5086437;28;20052;-76
2024/01/20 07:20:44;;;;;;;0.20;0.20;;;-0.90;99.90;;;;;;5086082;28;20583;-76
2024/01/20 07:23:12;;;;;;;0.20;0.20;;;-0.90;99.90;;;;;;5080529;28;20044;-76
2024/01/20 07:25:39;;;;;;;0.28;0.28;;;-0.90;99.90;;;;;;5082363;28;20053;-76
2024/01/20 07:28:06;;;;;;;0.20;0.20;;;-0.90;99.90;;;;;;5074675;28;20044;-76
2024/01/20 07:30:34;;;;;;;0.20;0.20;;;-0.90;99.90;;;;;;5061343;28;25476;-77
2024/01/20 07:33:01;;;;;;;0.20;0.20;;;-0.80;99.90;;;;;;5077826;28;20037;-76
2024/01/20 07:35:28;;;;;;;0.20;0.20;;;-0.80;99.90;;;;;;5084215;28;20128;-76
2024/01/20 07:37:55;;;;;;;0.15;0.15;;;-0.80;99.90;;;;;;5081878;28;20570;-76
2024/01/20 07:40:22;;;;;;;0.20;0.20;;;-0.80;99.90;;;;;;5060380;28;20049;-77
2024/01/20 07:42:49;;;;;;;0.20;0.20;;;-0.80;99.90;;;;;;5065556;28;20037;-76
2024/01/20 07:45:17;;;;;;;0.20;0.20;;;-0.80;99.90;;;;;;5065667;28;20057;-77
2024/01/20 07:47:46;;;;;;;0.20;0.20;;;-0.70;99.90;;;;;;5059799;28;20140;-77
2024/01/20 07:50:14;;;;;;;0.20;0.20;;;-0.60;99.90;;;;;;5083330;28;20519;-77
2024/01/20 07:52:41;;;;;;;0.20;0.20;;;-0.60;99.90;;;;;;5075887;28;20807;-76
2024/01/20 07:55:08;;;;;;;0.28;0.28;;;-0.70;99.90;;;;;;5066823;28;20888;-77
2024/01/20 07:57:36;;;;;;;0.20;0.20;;;-0.60;99.90;;;;;;5069082;28;20060;-77
2024/01/20 08:00:05;;;;;;;0.20;0.20;;;-0.60;99.90;;;;;;5085542;28;20124;-77
2024/01/20 08:02:33;;;;;;;0.20;0.20;;;-0.60;99.90;;;;;;5080451;28;20053;-76
2024/01/20 08:05:01;;;;;;;0.15;0.15;;;-0.60;99.90;;;;;;5068913;28;20052;-79
2024/01/20 08:07:28;;;;;;;0.20;0.20;;;-0.50;99.90;;;;;;5083315;28;20432;-77
2024/01/20 08:09:55;;;;;;;0.20;0.20;;;-0.40;99.90;;;;;;5074519;28;20052;-77
2024/01/20 08:12:22;;;;;;;0.15;0.15;;;-0.30;99.90;;;;;;5078390;28;20064;-77
2024/01/20 08:14:49;;;;;;;0.10;0.10;;;-0.20;99.90;;;;;;5066142;28;20136;-77
2024/01/20 08:17:17;;;;;;;0.20;0.20;;;0.00;99.90;;;;;;5053391;28;20087;-77
2024/01/20 08:19:48;;;;;;;0.20;0.20;;;0.10;99.90;;;;;;5089408;28;20044;-77
2024/01/20 08:22:17;;;;;;;0.20;0.20;;;0.20;99.90;;;;;;5083250;28;20048;-76
2024/01/20 08:24:44;;;;;;;0.20;0.20;;;0.30;99.90;;;;;;5089882;28;20044;-77
2024/01/20 08:27:12;;;;;;;0.20;0.20;;;0.40;99.90;;;;;;5075282;28;20044;-77
2024/01/20 08:29:41;;;;;;;0.10;0.10;;;0.60;99.90;;;;;;5065342;28;20512;-77
2024/01/20 08:32:08;;;;;;;0.20;0.20;;;0.70;99.90;;;;;;5083156;28;20721;-77
2024/01/20 08:34:36;;;;;;;0.20;0.20;;;0.80;99.90;;;;;;5073533;28;20044;-76
2024/01/20 08:37:03;;;;;;;0.15;0.15;;;0.70;99.90;;;;;;5088066;28;20049;-77
2024/01/20 08:39:30;;;;;;;0.20;0.20;;;0.70;99.90;;;;;;5072589;28;20110;-77
2024/01/20 08:41:58;;;;;;;0.20;0.20;;;0.60;99.90;;;;;;5074794;28;20496;-77
2024/01/20 08:44:25;;;;;;;0.20;0.20;;;0.60;99.90;;;;;;5091565;28;20463;-77
2024/01/20 08:46:52;;;;;;;0.20;0.20;;;0.60;99.90;;;;;;5075362;28;20044;-77
2024/01/20 08:49:19;;;;;;;0.20;0.20;;;0.60;99.90;;;;;;5088232;28;20501;-77
2024/01/20 08:51:47;;;;;;;0.20;0.20;;;0.50;99.90;;;;;;5044505;28;20056;-77
2024/01/20 08:54:15;;;;;;;0.20;0.20;;;0.30;99.90;;;;;;5058988;28;20045;-76
2024/01/20 08:56:43;;;;;;;0.20;0.20;;;0.40;99.90;;;;;;5085381;28;20052;-77
2024/01/20 08:59:10;;;;;;;0.20;0.20;;;0.70;99.90;;;;;;5084887;28;20285;-77
2024/01/20 09:01:38;;;;;;;0.20;0.20;;;0.60;99.90;;;;;;5067176;28;20542;-76
2024/01/20 09:04:04;;;;;;;0.20;0.20;;;0.60;99.90;;;;;;5087529;28;20053;-76
2024/01/20 09:06:32;;;;;;;0.30;0.30;;;0.60;99.90;;;;;;5061540;28;20171;-76
2024/01/20 09:08:59;;;;;;;0.13;0.13;;;0.70;99.90;;;;;;5068540;28;20048;-76
2024/01/20 09:11:27;;;;;;;0.20;0.20;;;0.80;99.90;;;;;;5083229;28;20423;-76
2024/01/20 09:13:53;;;;;;;0.20;0.20;;;0.80;99.90;;;;;;5087263;28;20048;-76
2024/01/20 09:16:21;;;;;;;0.10;0.10;;;0.80;99.90;;;;;;5088338;28;20580;-76
2024/01/20 09:18:48;;;;;;;0.10;0.10;;;0.80;99.90;;;;;;5065274;28;20047;-77
2024/01/20 09:21:15;;;;;;;0.20;0.20;;;0.70;99.90;;;;;;5070681;28;20049;-77
2024/01/20 09:23:42;;;;;;;0.20;0.20;;;0.70;99.90;;;;;;5083583;28;20543;-77
2024/01/20 09:26:10;;;;;;;0.17;0.17;;;0.60;99.90;;;;;;5086110;28;20095;-77
2024/01/20 09:28:37;;;;;;;0.20;0.20;;;0.60;99.90;;;;;;5084405;28;20098;-77
2024/01/20 09:31:04;;;;;;;0.10;0.10;;;0.60;99.90;;;;;;5049947;28;20103;-77
2024/01/20 09:33:34;;;;;;;0.20;0.20;;;0.60;99.90;;;;;;5079695;28;20051;-76
2024/01/20 09:36:03;;;;;;;0.20;0.20;;;0.70;99.90;;;;;;5082299;28;20053;-77
2024/01/20 09:38:30;;;;;;;0.15;0.15;;;0.70;99.90;;;;;;5066536;28;20068;-77
2024/01/20 09:40:58;;;;;;;0.20;0.20;;;0.70;99.90;;;;;;5049982;28;20064;-77
2024/01/20 09:43:25;;;;;;;0.20;0.20;;;0.70;99.90;;;;;;5097303;28;20101;-77
2024/01/20 09:45:53;;;;;;;0.20;0.20;;;0.80;99.90;;;;;;5079649;28;20055;-76
2024/01/20 09:48:20;;;;;;;0.20;0.20;;;0.90;99.90;;;;;;5088726;28;20041;-76
2024/01/20 09:50:49;;;;;;;0.13;0.13;;;0.90;99.90;;;;;;5080621;28;20496;-77
2024/01/20 09:53:16;;;;;;;0.20;0.20;;;1.00;99.90;;;;;;5079434;28;20055;-76
2024/01/20 09:55:45;;;;;;;0.20;0.20;;;1.10;99.90;;;;;;5088878;28;20049;-77
2024/01/20 09:58:16;;;;;;;0.20;0.20;;;1.20;99.90;;;;;;5088561;28;20048;-77
2024/01/20 10:00:43;;;;;;;0.20;0.20;;;1.30;99.90;;;;;;5090566;28;20143;-77
2024/01/20 10:03:11;;;;;;;0.20;0.20;;;1.40;99.90;;;;;;5087033;28;20060;-77
2024/01/20 10:05:39;;;;;;;0.15;0.15;;;1.50;99.90;;;;;;5081486;28;20061;-77
2024/01/20 10:08:06;;;;;;;0.20;0.20;;;1.50;99.90;;;;;;5072990;28;20106;-76
2024/01/20 10:10:34;;;;;;;0.20;0.20;;;1.60;99.90;;;;;;5083613;28;20056;-77
2024/01/20 10:13:02;;;;;;;0.20;0.20;;;1.60;99.90;;;;;;5071985;28;20083;-76
2024/01/20 10:15:30;;;;;;;0.10;0.10;;;1.60;99.90;;;;;;5091128;28;20036;-76
2024/01/20 10:17:59;;;;;;;0.10;0.10;;;1.60;99.90;;;;;;5069801;28;20049;-76
2024/01/20 10:20:34;;;;;;;0.20;0.20;;;1.60;99.90;;;;;;5089438;28;20037;-76
2024/01/20 10:23:02;;;;;;;0.20;0.20;;;1.70;99.90;;;;;;5087323;28;20072;-76
2024/01/20 10:25:30;;;;;;;0.10;0.10;;;1.70;99.90;;;;;;5088975;28;20056;-76
2024/01/20 10:27:57;;;;;;;0.17;0.17;;;1.80;99.90;;;;;;5069363;28;20404;-76
2024/01/20 10:30:25;;;;;;;0.20;0.20;;;1.80;99.90;;;;;;5082826;28;20208;-76
2024/01/20 10:32:53;;;;;;;0.20;0.20;;;1.80;99.90;;;;;;5080372;28;20044;-76
2024/01/20 10:35:24;;;;;;;0.10;0.10;;;1.90;99.90;;;;;;5082915;28;20150;-76
2024/01/20 10:37:56;;;;;;;0.20;0.20;;;2.00;99.90;;;;;;5084842;28;20049;-75
2024/01/20 10:40:24;;;;;;;0.20;0.20;;;2.00;99.90;;;;;;5081447;28;20048;-75
2024/01/20 10:42:56;;;;;;;0.20;0.20;;;2.10;99.90;;;;;;5082841;28;23557;-75
2024/01/20 10:45:25;;;;;;;0.20;0.20;;;2.10;99.90;;;;;;5083307;28;20040;-75
2024/01/20 10:47:58;;;;;;;0.20;0.20;;;2.10;99.90;;;;;;5068823;28;20047;-76
2024/01/20 10:50:25;;;;;;;0.20;0.20;;;2.10;99.90;;;;;;5070485;28;20053;-76
2024/01/20 10:52:52;;;;;;;0.20;0.20;;;2.10;99.90;;;;;;5086396;28;20044;-75
2024/01/20 10:55:21;;;;;;;0.20;0.20;;;2.10;99.90;;;;;;5068174;28;20045;-75
2024/01/20 10:57:49;;;;;;;0.20;0.20;;;2.10;99.90;;;;;;5069691;28;20075;-76
2024/01/20 11:00:19;;;;;;;0.20;0.20;;;2.10;99.90;;;;;;5084293;28;20052;-75
2024/01/20 11:02:46;;;;;;;0.15;0.15;;;2.10;99.90;;;;;;5087154;28;20497;-75
2024/01/20 11:05:25;;;;;;;0.20;0.20;;;2.20;99.90;;;;;;5081517;28;20037;-75
2024/01/20 11:07:56;;;;;;;0.20;0.20;;;2.20;99.90;;;;;;5067675;28;20428;-75
2024/01/20 11:10:28;;;;;;;0.13;0.13;;;2.30;99.90;;;;;;5088173;28;20045;-76
2024/01/20 11:13:15;;;;;;;0.10;0.10;;;2.40;99.90;;;;;;5081121;28;20045;-75
2024/01/20 11:15:49;;;;;;;0.20;0.20;;;2.40;99.90;;;;;;5086996;28;20041;-76
2024/01/20 11:18:21;;;;;;;0.20;0.20;;;2.50;99.90;;;;;;5085304;28;20542;-75
2024/01/20 11:21:03;;;;;;;0.10;0.10;;;2.60;99.90;;;;;;5081918;28;20565;-75
2024/01/20 11:23:31;;;;;;;0.20;0.20;;;2.50;99.90;;;;;;5087739;28;20056;-75
2024/01/20 11:26:10;;;;;;;0.20;0.20;;;2.40;99.90;;;;;;5086405;28;20045;-75
2024/01/20 11:28:42;;;;;;;0.10;0.10;;;2.50;99.90;;;;;;5080290;28;20048;-75
2024/01/20 11:31:19;;;;;;;0.20;0.20;;;2.40;99.90;;;;;;5058985;28;21056;-75
2024/01/20 11:33:47;;;;;;;0.10;0.10;;;2.40;99.90;;;;;;5076529;28;20132;-75
2024/01/20 11:36:14;;;;;;;0.20;0.20;;;2.50;99.90;;;;;;5045883;28;20077;-75
2024/01/20 11:38:45;;;;;;;0.20;0.20;;;2.40;99.90;;;;;;5069392;28;20045;-75
2024/01/20 11:41:17;;;;;;;0.10;0.10;;;2.40;99.90;;;;;;5078811;28;20489;-76
2024/01/20 11:43:45;;;;;;;0.20;0.20;;;2.40;99.90;;;;;;5086456;28;20055;-75
2024/01/20 11:46:14;;;;;;;0.20;0.20;;;2.30;99.90;;;;;;5058467;28;20048;-77
2024/01/20 11:48:44;;;;;;;0.20;0.20;;;2.30;99.90;;;;;;5080159;28;20041;-79
2024/01/20 11:51:12;;;;;;;0.10;0.10;;;2.30;99.90;;;;;;5094014;28;20456;-78
2024/01/20 11:53:39;;;;;;;0.22;0.22;;;2.20;99.90;;;;;;5081415;28;20504;-78
2024/01/20 11:56:06;;;;;;;0.20;0.20;;;2.20;99.90;;;;;;5067739;28;20049;-79
2024/01/20 11:58:33;;;;;;;0.20;0.20;;;2.20;99.90;;;;;;5064711;28;20779;-78
2024/01/20 12:01:02;;;;;;;0.20;0.20;;;2.20;99.90;;;;;;5108512;28;20049;-78
2024/01/20 12:03:30;;;;;;;0.20;0.20;;;2.20;99.90;;;;;;5105531;28;20032;-78
2024/01/20 12:06:05;;;;;;;0.17;0.17;;;2.20;99.90;;;;;;5109983;28;20089;-79
2024/01/20 12:08:36;;;;;;;0.20;0.20;;;2.20;99.90;;;;;;5122018;28;20048;-79
2024/01/20 12:11:04;;;;;;;0.20;0.20;;;2.10;99.90;;;;;;5094125;28;20041;-79
2024/01/20 12:13:34;;;;;;;0.20;0.20;;;2.10;99.90;;;;;;5108758;28;27440;-79
2024/01/20 12:16:03;;;;;;;0.10;0.10;;;2.10;99.90;;;;;;5094041;28;20135;-78
2024/01/20 12:18:30;;;;;;;0.20;0.20;;;2.20;99.90;;;;;;5088133;28;20075;-79
2024/01/20 12:20:58;;;;;;;0.17;0.17;;;2.20;99.90;;;;;;5090768;28;20065;-79
2024/01/20 12:23:26;;;;;;;0.20;0.20;;;2.20;99.90;;;;;;5105286;28;20035;-79
2024/01/20 12:25:54;;;;;;;0.20;0.20;;;2.30;99.90;;;;;;5091294;28;20823;-78
2024/01/20 12:28:21;;;;;;;0.20;0.20;;;2.20;99.90;;;;;;5102766;28;20048;-79
2024/01/20 12:30:49;;;;;;;0.10;0.10;;;2.20;99.90;;;;;;5121752;28;20051;-79
2024/01/20 12:33:16;;;;;;;0.10;0.10;;;2.20;99.90;;;;;;5091831;28;20059;-79
2024/01/20 12:35:44;;;;;;;0.20;0.20;;;2.20;99.90;;;;;;5108070;28;20083;-78
2024/01/20 12:38:11;;;;;;;0.20;0.20;;;2.20;99.90;;;;;;5106001;28;20079;-79
2024/01/20 12:40:39;;;;;;;0.17;0.17;;;2.20;99.90;;;;;;5092509;28;20083;-79
2024/01/20 12:43:07;;;;;;;0.15;0.15;;;2.20;99.90;;;;;;5106547;28;20059;-79
2024/01/20 12:45:35;;;;;;;0.20;0.20;;;2.20;99.90;;;;;;5084134;28;20140;-79
2024/01/20 12:48:02;;;;;;;0.10;0.10;;;2.20;99.90;;;;;;5112534;28;20045;-79
2024/01/20 12:50:30;;;;;;;0.13;0.13;;;2.30;99.90;;;;;;5084571;28;20067;-79
2024/01/20 12:52:57;;;;;;;0.20;0.20;;;2.40;99.90;;;;;;5088605;28;20087;-79
2024/01/20 12:55:25;;;;;;;0.20;0.20;;;2.40;99.90;;;;;;5087811;28;20067;-79